Pine Bluff, AR

7:59 AM CST on February 14, 2016 (GMT -0600)
Pine Bluff - Deerfield | | Change Station
CLOSE
Current Station
Personal Weather Station
Location: Pine Bluff, AR
Elevation: 228 ft
Nearby Weather Stations

Elev 228 ft 34.15 °N, 92.01 °W | Updated 8 seconds ago

Overcast
Overcast
41.3 °F
Feels Like 38 °F
N
5.0
Wind Variable Wind from SSE
Gusts 7.0 mph

Today
High -- | Low -- °F
--% Chance of Precip.
Yesterday
High -- | Low -- °F
Precip. -- in
Pressure 30.15 in
Visibility 10.0 miles
Clouds Overcast 3300 ft
Windchill 38 °F
Dew Point 25 °F
Humidity 53%
Rainfall 0.00 in
Snow Depth Not available.
6:54 AM 5:50 PM
Waxing Crescent, 42% visible
METAR KPBF 141353Z AUTO 16008KT 10SM OVC033 04/M06 A3014 RMK AO2 SLP208 T00441056
Pressure 30.15 in
Visibility 10.0 miles
Clouds Overcast 3300 ft
Windchill 38 °F
Dew Point 25 °F
Humidity 53%
Rainfall 0.00 in
Snow Depth Not available.
6:54 AM 5:50 PM
Waxing Crescent, 42% visible
METAR KPBF 141353Z AUTO 16008KT 10SM OVC033 04/M06 A3014 RMK AO2 SLP208 T00441056

10-Day Weather Forecast

Almanac

Astronomy

Feb. 14, 2016 Rise Set
Actual Time
Civil Twilight
Nautical Twilight
Astronomical Twilight
Moon
Length of Visible Light
Length of Day
Tomorrow will be .
, % of the Moon is Illuminated

Today's Extremes

State Highs State Lows

Community

WunderPhotos

Upload Photos

1,892,793 photos uploaded!

WunderBlog® & News

Nearby

Air Quality

  Air Quality AQ Index Pollutant
Not available.

Snow Depth

Station Depth Elevation

Earthquake Activity

City Distance Mag. Time & Date
Minimum magnitude displayed is 2.5.

Coastal Water Temperatures

Place Temperature

Stations

Nearby Weather Stations

Station Location Temp. Windchill Dew Point Humidity Wind Precip. Elev Updated Type
                   

Watches & Warnings

There are currently no watches in effect.